| Date | Time | Temp. (oF) | Dew Point (oF) | Rel. Hum. (%) | Press. (in.) | Wind Dir. | Wind Speed (mph) | Hourly Rainfall (in.) |
|
|---|---|---|---|---|---|---|---|---|---|
| 1 | 12/05 | 00:00 | 32 | 24 | 73 | 30.29 | NE | 2 | 0.00 |
| 2 | 12/04 | 23:00 | 32 | 23 | 72 | 30.31 | E | 2 | 0.00 |
| 3 | 12/04 | 22:00 | 32 | 23 | 70 | 30.32 | ESE | 0 | 0.00 |
| 4 | 12/04 | 21:00 | 32 | 23 | 70 | 30.33 | ESE | 1 | 0.00 |
| 5 | 12/04 | 20:00 | 32 | 22 | 69 | 30.35 | ENE | 2 | 0.00 |
| 6 | 12/04 | 19:00 | 32 | 21 | 66 | 30.38 | ENE | 2 | 0.00 |
| 7 | 12/04 | 18:00 | 33 | 22 | 64 | 30.37 | E | 4 | 0.00 |
| 8 | 12/04 | 17:00 | 35 | 22 | 60 | 30.38 | NE | 3 | 0.00 |
| 9 | 12/04 | 16:00 | 37 | 20 | 50 | 30.39 | S | 3 | 0.00 |
| 10 | 12/04 | 15:00 | 37 | 20 | 50 | 30.39 | WSW | 3 | 0.00 |
| 11 | 12/04 | 14:00 | 38 | 20 | 50 | 30.40 | SSW | 2 | 0.00 |
| 12 | 12/04 | 13:00 | 36 | 22 | 58 | 30.42 | NW | 3 | 0.00 |
| 13 | 12/04 | 12:00 | 34 | 24 | 69 | 30.46 | WSW | 3 | 0.00 |
| 14 | 12/04 | 11:00 | 31 | 24 | 77 | 30.49 | S | 3 | 0.00 |
| 15 | 12/04 | 10:00 | 26 | 24 | 95 | 30.50 | S | 1 | 0.00 |
| 16 | 12/04 | 09:00 | 23 | 22 | 98 | 30.50 | ESE | 1 | 0.00 |
| 17 | 12/04 | 08:00 | 20 | 19 | 97 | 30.50 | W | 0 | 0.00 |
| 18 | 12/04 | 07:00 | 20 | 18 | 95 | 30.49 | W | 1 | 0.00 |
| 19 | 12/04 | 06:00 | 20 | 18 | 94 | 30.50 | W | 1 | 0.00 |
| 20 | 12/04 | 05:00 | 21 | 19 | 93 | 30.51 | W | 1 | 0.00 |
| 21 | 12/04 | 04:00 | 21 | 19 | 93 | 30.52 | W | 0 | 0.00 |
| 22 | 12/04 | 03:00 | 22 | 19 | 91 | 30.54 | SSW | 1 | 0.00 |
| 23 | 12/04 | 02:00 | 22 | 18 | 88 | 30.54 | W | 1 | 0.00 |
| 24 | 12/04 | 01:00 | 23 | 20 | 89 | 30.53 | SW | 3 | 0.00 |